sensor_id;sensor_type;location;lat;lon;timestamp;P1;durP1;ratioP1;P2;durP2;ratioP2
21245;SDS011;10781;50.928;4.440;2022-11-14T00:02:07;30.35;;;21.45;;
21245;SDS011;10781;50.928;4.440;2022-11-14T00:04:33;32.33;;;21.67;;
21245;SDS011;10781;50.928;4.440;2022-11-14T00:06:59;32.47;;;21.45;;
21245;SDS011;10781;50.928;4.440;2022-11-14T00:09:25;33.30;;;22.88;;
21245;SDS011;10781;50.928;4.440;2022-11-14T00:11:51;30.90;;;22.23;;
21245;SDS011;10781;50.928;4.440;2022-11-14T00:14:17;28.80;;;21.13;;
21245;SDS011;10781;50.928;4.440;2022-11-14T00:16:43;28.90;;;21.13;;
21245;SDS011;10781;50.928;4.440;2022-11-14T00:19:08;30.00;;;21.45;;
21245;SDS011;10781;50.928;4.440;2022-11-14T00:21:34;27.77;;;20.40;;
21245;SDS011;10781;50.928;4.440;2022-11-14T00:24:00;27.90;;;20.20;;
21245;SDS011;10781;50.928;4.440;2022-11-14T00:26:25;28.58;;;20.23;;
21245;SDS011;10781;50.928;4.440;2022-11-14T00:28:51;29.50;;;20.40;;
21245;SDS011;10781;50.928;4.440;2022-11-14T00:31:18;29.77;;;21.35;;
21245;SDS011;10781;50.928;4.440;2022-11-14T00:33:44;29.20;;;21.17;;
21245;SDS011;10781;50.928;4.440;2022-11-14T00:36:09;30.08;;;20.35;;
21245;SDS011;10781;50.928;4.440;2022-11-14T00:38:35;27.88;;;21.30;;
21245;SDS011;10781;50.928;4.440;2022-11-14T00:41:01;28.38;;;20.77;;
21245;SDS011;10781;50.928;4.440;2022-11-14T00:43:26;25.58;;;20.23;;
21245;SDS011;10781;50.928;4.440;2022-11-14T00:45:52;26.40;;;20.80;;
21245;SDS011;10781;50.928;4.440;2022-11-14T00:48:17;29.70;;;20.83;;
21245;SDS011;10781;50.928;4.440;2022-11-14T00:50:43;30.60;;;20.48;;
21245;SDS011;10781;50.928;4.440;2022-11-14T00:53:09;32.22;;;21.23;;
21245;SDS011;10781;50.928;4.440;2022-11-14T00:55:34;29.27;;;20.98;;
21245;SDS011;10781;50.928;4.440;2022-11-14T00:58:00;31.50;;;21.23;;
21245;SDS011;10781;50.928;4.440;2022-11-14T01:00:25;28.23;;;20.75;;
21245;SDS011;10781;50.928;4.440;2022-11-14T01:02:51;30.60;;;21.80;;
21245;SDS011;10781;50.928;4.440;2022-11-14T01:05:20;30.15;;;20.40;;
21245;SDS011;10781;50.928;4.440;2022-11-14T01:07:47;31.33;;;21.95;;
21245;SDS011;10781;50.928;4.440;2022-11-14T01:10:13;28.90;;;21.02;;
21245;SDS011;10781;50.928;4.440;2022-11-14T01:12:40;29.05;;;21.27;;
21245;SDS011;10781;50.928;4.440;2022-11-14T01:15:05;31.33;;;22.00;;
21245;SDS011;10781;50.928;4.440;2022-11-14T01:17:32;29.52;;;20.75;;
21245;SDS011;10781;50.928;4.440;2022-11-14T01:19:57;30.58;;;21.70;;
21245;SDS011;10781;50.928;4.440;2022-11-14T01:22:23;28.10;;;21.67;;
21245;SDS011;10781;50.928;4.440;2022-11-14T01:24:48;27.23;;;19.75;;
21245;SDS011;10781;50.928;4.440;2022-11-14T01:27:14;29.20;;;20.35;;
21245;SDS011;10781;50.928;4.440;2022-11-14T01:29:40;30.13;;;21.60;;
21245;SDS011;10781;50.928;4.440;2022-11-14T01:32:05;30.55;;;21.25;;
21245;SDS011;10781;50.928;4.440;2022-11-14T01:34:31;29.33;;;20.88;;
21245;SDS011;10781;50.928;4.440;2022-11-14T01:36:56;28.73;;;20.13;;
21245;SDS011;10781;50.928;4.440;2022-11-14T01:39:22;29.85;;;21.20;;
21245;SDS011;10781;50.928;4.440;2022-11-14T01:41:49;30.38;;;20.95;;
21245;SDS011;10781;50.928;4.440;2022-11-14T01:44:16;28.05;;;20.98;;
21245;SDS011;10781;50.928;4.440;2022-11-14T01:47:01;28.15;;;18.10;;
21245;SDS011;10781;50.928;4.440;2022-11-14T01:49:38;24.80;;;17.45;;
21245;SDS011;10781;50.928;4.440;2022-11-14T01:52:09;23.85;;;17.92;;
21245;SDS011;10781;50.928;4.440;2022-11-14T01:54:57;27.63;;;19.15;;
21245;SDS011;10781;50.928;4.440;2022-11-14T01:57:43;25.63;;;18.23;;
21245;SDS011;10781;50.928;4.440;2022-11-14T02:00:11;24.02;;;17.52;;
21245;SDS011;10781;50.928;4.440;2022-11-14T02:02:37;26.35;;;18.45;;
21245;SDS011;10781;50.928;4.440;2022-11-14T02:05:07;23.90;;;18.38;;
21245;SDS011;10781;50.928;4.440;2022-11-14T02:07:36;25.33;;;18.30;;
21245;SDS011;10781;50.928;4.440;2022-11-14T02:10:05;27.05;;;18.30;;
21245;SDS011;10781;50.928;4.440;2022-11-14T02:12:34;27.13;;;18.13;;
21245;SDS011;10781;50.928;4.440;2022-11-14T02:15:01;25.58;;;18.23;;
21245;SDS011;10781;50.928;4.440;2022-11-14T02:17:27;26.23;;;19.13;;
21245;SDS011;10781;50.928;4.440;2022-11-14T02:22:28;25.77;;;18.05;;
21245;SDS011;10781;50.928;4.440;2022-11-14T02:24:54;25.98;;;17.73;;
21245;SDS011;10781;50.928;4.440;2022-11-14T02:27:20;23.85;;;17.25;;
21245;SDS011;10781;50.928;4.440;2022-11-14T02:29:45;23.17;;;16.20;;
21245;SDS011;10781;50.928;4.440;2022-11-14T02:32:11;23.55;;;17.58;;
21245;SDS011;10781;50.928;4.440;2022-11-14T02:34:37;22.23;;;16.73;;
21245;SDS011;10781;50.928;4.440;2022-11-14T02:37:03;24.70;;;17.85;;
21245;SDS011;10781;50.928;4.440;2022-11-14T02:39:29;27.10;;;18.65;;
21245;SDS011;10781;50.928;4.440;2022-11-14T02:41:55;23.83;;;17.40;;
21245;SDS011;10781;50.928;4.440;2022-11-14T02:44:20;24.83;;;17.70;;
21245;SDS011;10781;50.928;4.440;2022-11-14T02:46:46;23.20;;;17.13;;
21245;SDS011;10781;50.928;4.440;2022-11-14T02:49:12;26.00;;;17.52;;
21245;SDS011;10781;50.928;4.440;2022-11-14T02:51:37;23.88;;;17.23;;
21245;SDS011;10781;50.928;4.440;2022-11-14T02:54:05;28.13;;;18.20;;
21245;SDS011;10781;50.928;4.440;2022-11-14T02:56:30;22.65;;;17.33;;
21245;SDS011;10781;50.928;4.440;2022-11-14T02:58:56;26.00;;;17.95;;
21245;SDS011;10781;50.928;4.440;2022-11-14T03:01:22;25.60;;;17.58;;
21245;SDS011;10781;50.928;4.440;2022-11-14T03:03:48;26.35;;;17.27;;
21245;SDS011;10781;50.928;4.440;2022-11-14T03:06:13;23.40;;;17.08;;
21245;SDS011;10781;50.928;4.440;2022-11-14T03:08:39;30.25;;;21.55;;
21245;SDS011;10781;50.928;4.440;2022-11-14T03:11:08;28.17;;;18.70;;
21245;SDS011;10781;50.928;4.440;2022-11-14T03:13:34;26.52;;;18.10;;
21245;SDS011;10781;50.928;4.440;2022-11-14T03:16:07;23.83;;;17.38;;
21245;SDS011;10781;50.928;4.440;2022-11-14T03:18:35;24.58;;;18.05;;
21245;SDS011;10781;50.928;4.440;2022-11-14T03:21:04;28.10;;;18.10;;
21245;SDS011;10781;50.928;4.440;2022-11-14T03:23:32;24.92;;;18.17;;
21245;SDS011;10781;50.928;4.440;2022-11-14T03:25:58;25.48;;;17.25;;
21245;SDS011;10781;50.928;4.440;2022-11-14T03:28:26;25.60;;;17.23;;
21245;SDS011;10781;50.928;4.440;2022-11-14T03:30:52;24.25;;;16.83;;
21245;SDS011;10781;50.928;4.440;2022-11-14T03:33:17;24.00;;;16.65;;
21245;SDS011;10781;50.928;4.440;2022-11-14T03:35:43;22.42;;;15.57;;
21245;SDS011;10781;50.928;4.440;2022-11-14T03:38:09;23.40;;;15.90;;
21245;SDS011;10781;50.928;4.440;2022-11-14T03:40:38;21.88;;;15.43;;
21245;SDS011;10781;50.928;4.440;2022-11-14T03:43:04;23.75;;;15.85;;
21245;SDS011;10781;50.928;4.440;2022-11-14T03:45:29;20.60;;;14.98;;
21245;SDS011;10781;50.928;4.440;2022-11-14T03:47:55;24.60;;;15.10;;
21245;SDS011;10781;50.928;4.440;2022-11-14T03:50:20;23.25;;;16.98;;
21245;SDS011;10781;50.928;4.440;2022-11-14T03:52:53;22.67;;;16.40;;
21245;SDS011;10781;50.928;4.440;2022-11-14T03:55:18;24.42;;;16.00;;
21245;SDS011;10781;50.928;4.440;2022-11-14T03:57:44;24.13;;;15.93;;
21245;SDS011;10781;50.928;4.440;2022-11-14T04:00:09;23.85;;;17.15;;
21245;SDS011;10781;50.928;4.440;2022-11-14T04:02:36;24.63;;;17.50;;
21245;SDS011;10781;50.928;4.440;2022-11-14T04:05:01;21.52;;;16.38;;
21245;SDS011;10781;50.928;4.440;2022-11-14T04:07:27;21.60;;;16.80;;
21245;SDS011;10781;50.928;4.440;2022-11-14T04:09:53;24.77;;;16.88;;
21245;SDS011;10781;50.928;4.440;2022-11-14T04:12:18;24.90;;;17.17;;
21245;SDS011;10781;50.928;4.440;2022-11-14T04:14:44;26.23;;;17.27;;
21245;SDS011;10781;50.928;4.440;2022-11-14T04:17:09;23.17;;;16.00;;
21245;SDS011;10781;50.928;4.440;2022-11-14T04:19:35;24.13;;;16.15;;
21245;SDS011;10781;50.928;4.440;2022-11-14T04:22:01;23.30;;;16.38;;
21245;SDS011;10781;50.928;4.440;2022-11-14T04:24:27;25.00;;;17.17;;
21245;SDS011;10781;50.928;4.440;2022-11-14T04:26:52;22.67;;;15.57;;
21245;SDS011;10781;50.928;4.440;2022-11-14T04:29:18;23.30;;;16.65;;
21245;SDS011;10781;50.928;4.440;2022-11-14T04:31:44;23.05;;;16.50;;
21245;SDS011;10781;50.928;4.440;2022-11-14T04:34:09;25.80;;;17.20;;
21245;SDS011;10781;50.928;4.440;2022-11-14T04:36:35;22.77;;;16.80;;
21245;SDS011;10781;50.928;4.440;2022-11-14T04:39:00;21.35;;;15.60;;
21245;SDS011;10781;50.928;4.440;2022-11-14T04:41:26;22.75;;;15.73;;
21245;SDS011;10781;50.928;4.440;2022-11-14T04:43:52;20.88;;;14.95;;
21245;SDS011;10781;50.928;4.440;2022-11-14T04:46:17;21.02;;;16.20;;
21245;SDS011;10781;50.928;4.440;2022-11-14T04:48:43;21.88;;;16.05;;
21245;SDS011;10781;50.928;4.440;2022-11-14T04:51:08;21.48;;;15.60;;
21245;SDS011;10781;50.928;4.440;2022-11-14T04:53:34;24.83;;;16.40;;
21245;SDS011;10781;50.928;4.440;2022-11-14T04:56:00;21.48;;;15.38;;
21245;SDS011;10781;50.928;4.440;2022-11-14T04:58:25;20.52;;;15.25;;
21245;SDS011;10781;50.928;4.440;2022-11-14T05:00:51;23.38;;;15.85;;
21245;SDS011;10781;50.928;4.440;2022-11-14T05:03:17;22.30;;;15.35;;
21245;SDS011;10781;50.928;4.440;2022-11-14T05:05:42;24.38;;;15.77;;
21245;SDS011;10781;50.928;4.440;2022-11-14T05:08:08;24.98;;;15.73;;
21245;SDS011;10781;50.928;4.440;2022-11-14T05:10:33;25.08;;;16.10;;
21245;SDS011;10781;50.928;4.440;2022-11-14T05:13:00;24.27;;;17.02;;
21245;SDS011;10781;50.928;4.440;2022-11-14T05:15:26;23.60;;;16.17;;
21245;SDS011;10781;50.928;4.440;2022-11-14T05:17:51;22.98;;;15.23;;
21245;SDS011;10781;50.928;4.440;2022-11-14T05:20:17;22.02;;;16.25;;
21245;SDS011;10781;50.928;4.440;2022-11-14T05:22:43;23.38;;;15.50;;
21245;SDS011;10781;50.928;4.440;2022-11-14T05:25:08;23.35;;;16.10;;
21245;SDS011;10781;50.928;4.440;2022-11-14T05:27:34;24.98;;;15.90;;
21245;SDS011;10781;50.928;4.440;2022-11-14T05:29:59;23.42;;;16.02;;
21245;SDS011;10781;50.928;4.440;2022-11-14T05:32:25;22.48;;;14.77;;
21245;SDS011;10781;50.928;4.440;2022-11-14T05:34:51;23.13;;;14.55;;
21245;SDS011;10781;50.928;4.440;2022-11-14T05:37:16;19.63;;;14.38;;
21245;SDS011;10781;50.928;4.440;2022-11-14T05:39:42;24.90;;;15.50;;
21245;SDS011;10781;50.928;4.440;2022-11-14T05:42:07;22.88;;;14.10;;
21245;SDS011;10781;50.928;4.440;2022-11-14T05:44:33;20.08;;;14.82;;
21245;SDS011;10781;50.928;4.440;2022-11-14T05:46:59;22.00;;;14.98;;
21245;SDS011;10781;50.928;4.440;2022-11-14T05:49:24;20.45;;;15.57;;
21245;SDS011;10781;50.928;4.440;2022-11-14T05:51:50;19.77;;;14.80;;
21245;SDS011;10781;50.928;4.440;2022-11-14T05:54:15;24.02;;;15.45;;
21245;SDS011;10781;50.928;4.440;2022-11-14T05:56:41;20.10;;;14.75;;
21245;SDS011;10781;50.928;4.440;2022-11-14T05:59:06;23.33;;;14.75;;
21245;SDS011;10781;50.928;4.440;2022-11-14T06:01:32;21.33;;;14.93;;
21245;SDS011;10781;50.928;4.440;2022-11-14T06:03:58;21.10;;;14.95;;
21245;SDS011;10781;50.928;4.440;2022-11-14T06:06:23;23.05;;;14.32;;
21245;SDS011;10781;50.928;4.440;2022-11-14T06:08:49;21.48;;;15.23;;
21245;SDS011;10781;50.928;4.440;2022-11-14T06:11:15;21.38;;;14.32;;
21245;SDS011;10781;50.928;4.440;2022-11-14T06:13:43;25.35;;;16.00;;
21245;SDS011;10781;50.928;4.440;2022-11-14T06:16:10;24.70;;;15.65;;
21245;SDS011;10781;50.928;4.440;2022-11-14T06:18:45;21.13;;;15.07;;
21245;SDS011;10781;50.928;4.440;2022-11-14T06:21:12;22.58;;;14.50;;
21245;SDS011;10781;50.928;4.440;2022-11-14T06:23:42;22.40;;;15.15;;
21245;SDS011;10781;50.928;4.440;2022-11-14T06:26:11;20.48;;;14.90;;
21245;SDS011;10781;50.928;4.440;2022-11-14T06:28:57;20.98;;;14.10;;
21245;SDS011;10781;50.928;4.440;2022-11-14T06:31:24;21.10;;;14.55;;
21245;SDS011;10781;50.928;4.440;2022-11-14T06:33:50;21.88;;;14.60;;
21245;SDS011;10781;50.928;4.440;2022-11-14T06:36:16;23.35;;;14.80;;
21245;SDS011;10781;50.928;4.440;2022-11-14T06:38:42;22.30;;;14.63;;
21245;SDS011;10781;50.928;4.440;2022-11-14T06:43:38;26.13;;;14.38;;
21245;SDS011;10781;50.928;4.440;2022-11-14T06:46:05;23.38;;;14.75;;
21245;SDS011;10781;50.928;4.440;2022-11-14T06:48:32;21.90;;;14.52;;
21245;SDS011;10781;50.928;4.440;2022-11-14T06:50:59;23.05;;;14.77;;
21245;SDS011;10781;50.928;4.440;2022-11-14T06:53:26;24.55;;;15.70;;
21245;SDS011;10781;50.928;4.440;2022-11-14T06:55:53;23.90;;;15.13;;
21245;SDS011;10781;50.928;4.440;2022-11-14T06:58:27;23.83;;;15.70;;
21245;SDS011;10781;50.928;4.440;2022-11-14T07:00:54;22.10;;;14.95;;
21245;SDS011;10781;50.928;4.440;2022-11-14T07:03:20;22.25;;;14.68;;
21245;SDS011;10781;50.928;4.440;2022-11-14T07:05:46;26.35;;;14.60;;
21245;SDS011;10781;50.928;4.440;2022-11-14T07:08:12;24.55;;;14.90;;
21245;SDS011;10781;50.928;4.440;2022-11-14T07:10:38;25.60;;;15.18;;
21245;SDS011;10781;50.928;4.440;2022-11-14T07:13:04;23.88;;;14.75;;
21245;SDS011;10781;50.928;4.440;2022-11-14T07:15:30;27.35;;;15.48;;
21245;SDS011;10781;50.928;4.440;2022-11-14T07:17:57;20.63;;;14.32;;
21245;SDS011;10781;50.928;4.440;2022-11-14T07:20:23;27.30;;;15.43;;
21245;SDS011;10781;50.928;4.440;2022-11-14T07:22:49;33.97;;;16.40;;
21245;SDS011;10781;50.928;4.440;2022-11-14T07:25:14;22.73;;;15.27;;
21245;SDS011;10781;50.928;4.440;2022-11-14T07:27:40;27.02;;;15.13;;
21245;SDS011;10781;50.928;4.440;2022-11-14T07:30:06;23.50;;;14.93;;
21245;SDS011;10781;50.928;4.440;2022-11-14T07:32:32;24.02;;;15.85;;
21245;SDS011;10781;50.928;4.440;2022-11-14T07:34:57;24.15;;;14.73;;
21245;SDS011;10781;50.928;4.440;2022-11-14T07:37:23;27.55;;;15.45;;
21245;SDS011;10781;50.928;4.440;2022-11-14T07:39:48;25.75;;;15.88;;
21245;SDS011;10781;50.928;4.440;2022-11-14T07:42:14;29.83;;;15.88;;
21245;SDS011;10781;50.928;4.440;2022-11-14T07:44:40;33.38;;;15.70;;
21245;SDS011;10781;50.928;4.440;2022-11-14T07:47:05;25.88;;;15.73;;
21245;SDS011;10781;50.928;4.440;2022-11-14T07:49:34;28.55;;;15.38;;
21245;SDS011;10781;50.928;4.440;2022-11-14T07:51:59;29.02;;;15.18;;
21245;SDS011;10781;50.928;4.440;2022-11-14T07:54:25;28.63;;;15.45;;
21245;SDS011;10781;50.928;4.440;2022-11-14T07:56:51;31.42;;;16.60;;
21245;SDS011;10781;50.928;4.440;2022-11-14T07:59:16;28.95;;;15.40;;
21245;SDS011;10781;50.928;4.440;2022-11-14T08:01:42;25.65;;;15.27;;
21245;SDS011;10781;50.928;4.440;2022-11-14T08:04:07;28.42;;;15.57;;
21245;SDS011;10781;50.928;4.440;2022-11-14T08:06:33;28.25;;;15.18;;
21245;SDS011;10781;50.928;4.440;2022-11-14T08:08:59;27.63;;;15.70;;
21245;SDS011;10781;50.928;4.440;2022-11-14T08:11:24;27.67;;;15.63;;
21245;SDS011;10781;50.928;4.440;2022-11-14T08:14:08;24.63;;;14.48;;
21245;SDS011;10781;50.928;4.440;2022-11-14T08:16:34;24.88;;;16.98;;
21245;SDS011;10781;50.928;4.440;2022-11-14T08:19:00;33.15;;;19.10;;
21245;SDS011;10781;50.928;4.440;2022-11-14T08:21:25;30.10;;;18.60;;
21245;SDS011;10781;50.928;4.440;2022-11-14T08:23:51;32.53;;;17.75;;
21245;SDS011;10781;50.928;4.440;2022-11-14T08:26:16;35.65;;;22.45;;
21245;SDS011;10781;50.928;4.440;2022-11-14T08:28:42;32.78;;;21.30;;
21245;SDS011;10781;50.928;4.440;2022-11-14T08:31:08;33.10;;;21.40;;
21245;SDS011;10781;50.928;4.440;2022-11-14T08:33:34;26.58;;;18.67;;
21245;SDS011;10781;50.928;4.440;2022-11-14T08:36:03;34.25;;;19.70;;
21245;SDS011;10781;50.928;4.440;2022-11-14T08:38:31;29.75;;;18.25;;
21245;SDS011;10781;50.928;4.440;2022-11-14T08:40:58;28.13;;;16.15;;
21245;SDS011;10781;50.928;4.440;2022-11-14T08:43:24;27.05;;;15.95;;
21245;SDS011;10781;50.928;4.440;2022-11-14T08:45:50;25.65;;;15.45;;
21245;SDS011;10781;50.928;4.440;2022-11-14T08:48:16;24.85;;;15.15;;
21245;SDS011;10781;50.928;4.440;2022-11-14T08:50:42;21.92;;;15.10;;
21245;SDS011;10781;50.928;4.440;2022-11-14T08:53:07;28.00;;;15.30;;
21245;SDS011;10781;50.928;4.440;2022-11-14T08:55:33;27.77;;;13.65;;
21245;SDS011;10781;50.928;4.440;2022-11-14T08:57:58;24.02;;;14.30;;
21245;SDS011;10781;50.928;4.440;2022-11-14T09:00:24;30.33;;;14.63;;
21245;SDS011;10781;50.928;4.440;2022-11-14T09:02:50;30.55;;;15.10;;
21245;SDS011;10781;50.928;4.440;2022-11-14T09:05:16;25.17;;;15.50;;
21245;SDS011;10781;50.928;4.440;2022-11-14T09:07:41;31.27;;;15.57;;
21245;SDS011;10781;50.928;4.440;2022-11-14T09:10:07;27.15;;;16.25;;
21245;SDS011;10781;50.928;4.440;2022-11-14T09:12:33;29.40;;;15.95;;
21245;SDS011;10781;50.928;4.440;2022-11-14T09:14:59;31.63;;;16.00;;
21245;SDS011;10781;50.928;4.440;2022-11-14T09:17:25;28.02;;;16.95;;
21245;SDS011;10781;50.928;4.440;2022-11-14T09:19:51;25.35;;;16.88;;
21245;SDS011;10781;50.928;4.440;2022-11-14T09:22:16;30.48;;;16.65;;
21245;SDS011;10781;50.928;4.440;2022-11-14T09:24:42;22.48;;;15.88;;
21245;SDS011;10781;50.928;4.440;2022-11-14T09:27:11;28.05;;;16.85;;
21245;SDS011;10781;50.928;4.440;2022-11-14T09:29:37;22.90;;;16.10;;
21245;SDS011;10781;50.928;4.440;2022-11-14T09:32:02;26.58;;;16.63;;
21245;SDS011;10781;50.928;4.440;2022-11-14T09:34:28;25.70;;;16.98;;
21245;SDS011;10781;50.928;4.440;2022-11-14T09:36:54;24.40;;;15.82;;
21245;SDS011;10781;50.928;4.440;2022-11-14T09:39:19;26.70;;;16.52;;
21245;SDS011;10781;50.928;4.440;2022-11-14T09:42:05;23.35;;;15.85;;
21245;SDS011;10781;50.928;4.440;2022-11-14T09:47:26;30.52;;;15.70;;
21245;SDS011;10781;50.928;4.440;2022-11-14T09:50:42;26.42;;;15.50;;
21245;SDS011;10781;50.928;4.440;2022-11-14T09:52:41;23.55;;;13.93;;
21245;SDS011;10781;50.928;4.440;2022-11-14T09:57:44;25.10;;;12.48;;
21245;SDS011;10781;50.928;4.440;2022-11-14T10:00:18;18.52;;;12.50;;
21245;SDS011;10781;50.928;4.440;2022-11-14T10:08:21;21.52;;;10.48;;
21245;SDS011;10781;50.928;4.440;2022-11-14T10:10:58;14.57;;;9.25;;
21245;SDS011;10781;50.928;4.440;2022-11-14T10:16:09;17.77;;;9.63;;
21245;SDS011;10781;50.928;4.440;2022-11-14T10:22:03;16.48;;;10.10;;
21245;SDS011;10781;50.928;4.440;2022-11-14T10:27:18;16.83;;;10.20;;
21245;SDS011;10781;50.928;4.440;2022-11-14T10:40:09;19.20;;;9.77;;
21245;SDS011;10781;50.928;4.440;2022-11-14T10:42:56;17.40;;;10.40;;
21245;SDS011;10781;50.928;4.440;2022-11-14T10:45:35;17.55;;;10.77;;
21245;SDS011;10781;50.928;4.440;2022-11-14T10:48:08;15.68;;;10.65;;
21245;SDS011;10781;50.928;4.440;2022-11-14T10:54:00;16.73;;;10.38;;
21245;SDS011;10781;50.928;4.440;2022-11-14T10:56:18;19.73;;;11.05;;
21245;SDS011;10781;50.928;4.440;2022-11-14T10:58:43;20.48;;;11.70;;
21245;SDS011;10781;50.928;4.440;2022-11-14T11:04:10;22.33;;;11.55;;
21245;SDS011;10781;50.928;4.440;2022-11-14T11:06:52;17.83;;;11.10;;
21245;SDS011;10781;50.928;4.440;2022-11-14T11:09:59;17.73;;;10.95;;
21245;SDS011;10781;50.928;4.440;2022-11-14T11:12:45;20.65;;;11.63;;
21245;SDS011;10781;50.928;4.440;2022-11-14T11:15:21;16.85;;;11.73;;
21245;SDS011;10781;50.928;4.440;2022-11-14T11:17:55;18.73;;;11.57;;
21245;SDS011;10781;50.928;4.440;2022-11-14T11:23:21;19.33;;;11.55;;
21245;SDS011;10781;50.928;4.440;2022-11-14T11:26:20;18.25;;;11.77;;
21245;SDS011;10781;50.928;4.440;2022-11-14T11:28:41;21.25;;;12.50;;
21245;SDS011;10781;50.928;4.440;2022-11-14T11:31:07;18.65;;;11.93;;
21245;SDS011;10781;50.928;4.440;2022-11-14T11:33:35;18.98;;;12.60;;
21245;SDS011;10781;50.928;4.440;2022-11-14T11:38:41;19.50;;;12.27;;
21245;SDS011;10781;50.928;4.440;2022-11-14T11:46:31;22.52;;;13.15;;
21245;SDS011;10781;50.928;4.440;2022-11-14T11:49:15;20.17;;;12.43;;
21245;SDS011;10781;50.928;4.440;2022-11-14T11:51:44;19.02;;;11.70;;
21245;SDS011;10781;50.928;4.440;2022-11-14T11:56:42;22.40;;;12.93;;
21245;SDS011;10781;50.928;4.440;2022-11-14T12:02:02;20.48;;;12.75;;
21245;SDS011;10781;50.928;4.440;2022-11-14T12:04:41;24.15;;;12.85;;
21245;SDS011;10781;50.928;4.440;2022-11-14T12:07:30;18.35;;;10.90;;
21245;SDS011;10781;50.928;4.440;2022-11-14T12:09:52;20.85;;;11.82;;
21245;SDS011;10781;50.928;4.440;2022-11-14T12:15:14;19.38;;;11.50;;
21245;SDS011;10781;50.928;4.440;2022-11-14T12:31:22;18.50;;;12.45;;
21245;SDS011;10781;50.928;4.440;2022-11-14T12:33:54;20.02;;;13.10;;
21245;SDS011;10781;50.928;4.440;2022-11-14T12:36:26;23.38;;;12.77;;
21245;SDS011;10781;50.928;4.440;2022-11-14T12:38:55;22.80;;;13.55;;
21245;SDS011;10781;50.928;4.440;2022-11-14T12:41:26;19.88;;;14.05;;
21245;SDS011;10781;50.928;4.440;2022-11-14T12:44:15;20.23;;;13.93;;
21245;SDS011;10781;50.928;4.440;2022-11-14T12:52:03;20.98;;;14.57;;
21245;SDS011;10781;50.928;4.440;2022-11-14T12:54:49;26.65;;;14.40;;
21245;SDS011;10781;50.928;4.440;2022-11-14T12:57:17;20.60;;;14.23;;
21245;SDS011;10781;50.928;4.440;2022-11-14T13:00:10;24.80;;;14.23;;
21245;SDS011;10781;50.928;4.440;2022-11-14T13:05:32;20.48;;;14.35;;
21245;SDS011;10781;50.928;4.440;2022-11-14T13:14:14;22.02;;;13.93;;
21245;SDS011;10781;50.928;4.440;2022-11-14T13:20:32;52.60;;;34.63;;
21245;SDS011;10781;50.928;4.440;2022-11-14T13:33:47;21.60;;;15.10;;
21245;SDS011;10781;50.928;4.440;2022-11-14T13:36:57;20.52;;;14.63;;
21245;SDS011;10781;50.928;4.440;2022-11-14T13:44:57;25.80;;;14.25;;
21245;SDS011;10781;50.928;4.440;2022-11-14T13:50:29;22.15;;;14.55;;
21245;SDS011;10781;50.928;4.440;2022-11-14T13:52:57;22.92;;;15.18;;
21245;SDS011;10781;50.928;4.440;2022-11-14T14:03:44;22.92;;;15.30;;
21245;SDS011;10781;50.928;4.440;2022-11-14T14:06:32;24.45;;;16.33;;
21245;SDS011;10781;50.928;4.440;2022-11-14T14:18:05;23.55;;;16.33;;
21245;SDS011;10781;50.928;4.440;2022-11-14T14:20:50;24.15;;;14.68;;
21245;SDS011;10781;50.928;4.440;2022-11-14T14:32:12;25.40;;;16.75;;
21245;SDS011;10781;50.928;4.440;2022-11-14T14:34:39;42.42;;;25.38;;
21245;SDS011;10781;50.928;4.440;2022-11-14T14:37:19;27.10;;;16.90;;
21245;SDS011;10781;50.928;4.440;2022-11-14T14:40:04;24.38;;;16.80;;
21245;SDS011;10781;50.928;4.440;2022-11-14T14:42:37;26.17;;;16.13;;
21245;SDS011;10781;50.928;4.440;2022-11-14T14:45:09;26.35;;;16.65;;
21245;SDS011;10781;50.928;4.440;2022-11-14T14:47:40;24.67;;;16.05;;
21245;SDS011;10781;50.928;4.440;2022-11-14T14:50:19;25.73;;;16.98;;
21245;SDS011;10781;50.928;4.440;2022-11-14T14:52:53;28.67;;;17.30;;
21245;SDS011;10781;50.928;4.440;2022-11-14T14:55:25;28.27;;;17.70;;
21245;SDS011;10781;50.928;4.440;2022-11-14T14:57:53;29.45;;;17.38;;
21245;SDS011;10781;50.928;4.440;2022-11-14T15:00:22;29.35;;;17.70;;
21245;SDS011;10781;50.928;4.440;2022-11-14T15:02:51;28.92;;;18.45;;
21245;SDS011;10781;50.928;4.440;2022-11-14T15:05:22;26.17;;;17.95;;
21245;SDS011;10781;50.928;4.440;2022-11-14T15:07:51;33.47;;;18.60;;
21245;SDS011;10781;50.928;4.440;2022-11-14T15:10:22;26.92;;;17.60;;
21245;SDS011;10781;50.928;4.440;2022-11-14T15:12:53;30.52;;;18.67;;
21245;SDS011;10781;50.928;4.440;2022-11-14T15:15:20;27.85;;;17.80;;
21245;SDS011;10781;50.928;4.440;2022-11-14T15:17:47;29.00;;;18.50;;
21245;SDS011;10781;50.928;4.440;2022-11-14T15:25:34;27.48;;;18.60;;
21245;SDS011;10781;50.928;4.440;2022-11-14T15:28:01;27.40;;;17.70;;
21245;SDS011;10781;50.928;4.440;2022-11-14T15:30:32;29.10;;;17.75;;
21245;SDS011;10781;50.928;4.440;2022-11-14T15:32:59;28.20;;;17.83;;
21245;SDS011;10781;50.928;4.440;2022-11-14T15:35:27;26.48;;;17.83;;
21245;SDS011;10781;50.928;4.440;2022-11-14T15:38:18;29.15;;;18.85;;
21245;SDS011;10781;50.928;4.440;2022-11-14T15:41:07;28.10;;;17.55;;
21245;SDS011;10781;50.928;4.440;2022-11-14T15:48:51;29.17;;;18.00;;
21245;SDS011;10781;50.928;4.440;2022-11-14T15:51:16;25.30;;;17.60;;
21245;SDS011;10781;50.928;4.440;2022-11-14T15:53:46;28.38;;;17.60;;
21245;SDS011;10781;50.928;4.440;2022-11-14T15:56:13;25.73;;;17.20;;
21245;SDS011;10781;50.928;4.440;2022-11-14T15:58:38;26.33;;;17.20;;
21245;SDS011;10781;50.928;4.440;2022-11-14T16:01:04;26.55;;;17.70;;
21245;SDS011;10781;50.928;4.440;2022-11-14T16:03:37;23.20;;;16.33;;
21245;SDS011;10781;50.928;4.440;2022-11-14T16:06:03;26.45;;;17.02;;
21245;SDS011;10781;50.928;4.440;2022-11-14T16:08:28;25.35;;;16.38;;
21245;SDS011;10781;50.928;4.440;2022-11-14T16:10:54;24.73;;;16.42;;
21245;SDS011;10781;50.928;4.440;2022-11-14T16:13:20;25.20;;;16.02;;
21245;SDS011;10781;50.928;4.440;2022-11-14T16:15:45;22.63;;;14.80;;
21245;SDS011;10781;50.928;4.440;2022-11-14T16:18:11;22.73;;;14.82;;
21245;SDS011;10781;50.928;4.440;2022-11-14T16:20:37;20.85;;;14.82;;
21245;SDS011;10781;50.928;4.440;2022-11-14T16:23:03;20.77;;;13.77;;
21245;SDS011;10781;50.928;4.440;2022-11-14T16:25:30;18.38;;;13.55;;
21245;SDS011;10781;50.928;4.440;2022-11-14T16:27:56;20.65;;;14.23;;
21245;SDS011;10781;50.928;4.440;2022-11-14T16:30:22;20.17;;;13.52;;
21245;SDS011;10781;50.928;4.440;2022-11-14T16:32:49;18.05;;;12.77;;
21245;SDS011;10781;50.928;4.440;2022-11-14T16:35:16;18.63;;;12.93;;
21245;SDS011;10781;50.928;4.440;2022-11-14T16:37:44;17.25;;;12.25;;
21245;SDS011;10781;50.928;4.440;2022-11-14T16:40:14;16.73;;;12.48;;
21245;SDS011;10781;50.928;4.440;2022-11-14T16:42:43;16.35;;;12.55;;
21245;SDS011;10781;50.928;4.440;2022-11-14T16:45:09;20.65;;;13.48;;
21245;SDS011;10781;50.928;4.440;2022-11-14T16:47:36;18.80;;;12.27;;
21245;SDS011;10781;50.928;4.440;2022-11-14T16:50:03;17.73;;;11.95;;
21245;SDS011;10781;50.928;4.440;2022-11-14T16:52:29;17.95;;;12.55;;
21245;SDS011;10781;50.928;4.440;2022-11-14T16:54:55;15.18;;;11.73;;
21245;SDS011;10781;50.928;4.440;2022-11-14T16:57:20;16.17;;;12.20;;